Time,TemperatureF,DewpointF,PressureIn,WindDirection,WindDirectionDegrees,WindSpeedMPH,WindSpeedGustMPH,Humidity,HourlyPrecipIn,Conditions,Clouds,dailyrainin,SoftwareType,DateUTC
2013-11-28 00:02:00,34.8,28.0,25.66,SSW,202,0.0,5.0,73,0.00,,,0.00,Rainwise IP-100,2013-11-28 08:02:00,
2013-11-28 00:07:00,34.7,28.0,25.66,SE,135,0.0,3.0,74,0.00,,,0.00,Rainwise IP-100,2013-11-28 08:07:00,
2013-11-28 00:12:00,34.7,28.0,25.66,ESE,112,3.0,3.0,74,0.00,,,0.00,Rainwise IP-100,2013-11-28 08:12:00,
2013-11-28 00:17:00,34.8,28.0,25.66,SE,135,0.0,3.0,73,0.00,,,0.00,Rainwise IP-100,2013-11-28 08:17:00,
2013-11-28 00:22:00,35.0,26.0,25.66,SE,135,1.6,3.0,72,0.00,,,0.00,Rainwise IP-100,2013-11-28 08:22:00,
2013-11-28 00:27:00,35.1,26.0,25.66,ESE,112,0.0,2.0,71,0.00,,,0.00,Rainwise IP-100,2013-11-28 08:27:00,
2013-11-28 00:32:00,35.4,26.0,25.66,East,90,0.0,1.0,71,0.00,,,0.00,Rainwise IP-100,2013-11-28 08:32:00,
2013-11-28 00:37:00,35.2,26.0,25.66,ENE,67,0.0,0.0,70,0.00,,,0.00,Rainwise IP-100,2013-11-28 08:37:00,
2013-11-28 00:42:00,34.9,26.0,25.66,ENE,67,0.0,0.0,71,0.00,,,0.00,Rainwise IP-100,2013-11-28 08:42:00,
2013-11-28 00:47:00,34.6,28.0,25.66,ENE,67,0.0,0.0,73,0.00,,,0.00,Rainwise IP-100,2013-11-28 08:47:00,
2013-11-28 00:52:00,34.2,28.0,25.66,SSW,202,1.6,2.0,76,0.00,,,0.00,Rainwise IP-100,2013-11-28 08:52:00,
2013-11-28 00:57:00,33.9,28.0,25.67,SE,135,1.4,3.0,77,0.00,,,0.00,Rainwise IP-100,2013-11-28 08:57:00,
2013-11-28 01:02:00,33.7,28.0,25.67,SE,135,0.0,2.0,77,0.00,,,0.00,Rainwise IP-100,2013-11-28 09:02:00,
2013-11-28 01:07:00,33.8,28.0,25.67,SSE,157,1.6,2.0,77,0.00,,,0.00,Rainwise IP-100,2013-11-28 09:07:00,
2013-11-28 01:12:00,33.9,28.0,25.67,SE,135,1.4,3.0,77,0.00,,,0.00,Rainwise IP-100,2013-11-28 09:12:00,
2013-11-28 01:17:00,34.0,29.0,25.67,SE,135,0.0,2.0,78,0.00,,,0.00,Rainwise IP-100,2013-11-28 09:17:00,
2013-11-28 01:22:00,33.8,28.0,25.67,SSE,157,0.0,2.0,77,0.00,,,0.00,Rainwise IP-100,2013-11-28 09:22:00,
2013-11-28 01:27:00,33.6,28.0,25.66,SE,135,0.0,2.0,77,0.00,,,0.00,Rainwise IP-100,2013-11-28 09:27:00,
2013-11-28 01:32:00,33.5,29.0,25.66,SE,135,0.0,2.0,78,0.00,,,0.00,Rainwise IP-100,2013-11-28 09:32:00,
2013-11-28 01:37:00,33.6,29.0,25.66,SE,135,2.3,2.3,78,0.00,,,0.00,Rainwise IP-100,2013-11-28 09:37:00,
2013-11-28 01:42:00,33.8,29.0,25.66,SE,135,2.1,3.0,79,0.00,,,0.00,Rainwise IP-100,2013-11-28 09:42:00,
2013-11-28 01:47:00,34.1,29.0,25.66,SE,135,0.0,3.0,78,0.00,,,0.00,Rainwise IP-100,2013-11-28 09:47:00,
2013-11-28 01:52:00,34.3,29.0,25.66,SE,135,2.1,3.0,78,0.00,,,0.00,Rainwise IP-100,2013-11-28 09:52:00,
2013-11-28 01:57:00,34.4,29.0,25.67,SE,135,2.3,3.0,79,0.00,,,0.00,Rainwise IP-100,2013-11-28 09:57:00,
2013-11-28 02:02:00,34.3,29.0,25.67,SE,135,1.4,2.0,78,0.00,,,0.00,Rainwise IP-100,2013-11-28 10:02:00,
2013-11-28 02:07:00,34.2,29.0,25.67,SE,135,0.0,2.0,78,0.00,,,0.00,Rainwise IP-100,2013-11-28 10:07:00,
2013-11-28 02:12:00,34.0,29.0,25.67,SE,135,1.4,2.0,78,0.00,,,0.00,Rainwise IP-100,2013-11-28 10:12:00,
2013-11-28 02:17:00,34.0,28.0,25.67,SE,135,1.4,3.0,77,0.00,,,0.00,Rainwise IP-100,2013-11-28 10:17:00,
2013-11-28 02:22:00,34.0,29.0,25.67,SE,135,1.4,3.0,78,0.00,,,0.00,Rainwise IP-100,2013-11-28 10:22:00,
2013-11-28 02:27:00,33.9,29.0,25.66,SE,135,2.8,2.8,79,0.00,,,0.00,Rainwise IP-100,2013-11-28 10:27:00,
2013-11-28 02:32:00,33.8,29.0,25.67,SE,135,1.4,3.0,78,0.00,,,0.00,Rainwise IP-100,2013-11-28 10:32:00,
2013-11-28 02:37:00,33.9,29.0,25.67,ESE,112,0.0,2.0,78,0.00,,,0.00,Rainwise IP-100,2013-11-28 10:37:00,
2013-11-28 02:42:00,33.9,29.0,25.67,ESE,112,0.0,2.0,78,0.00,,,0.00,Rainwise IP-100,2013-11-28 10:42:00,
2013-11-28 02:47:00,33.9,28.0,25.67,ESE,112,0.0,2.0,77,0.00,,,0.00,Rainwise IP-100,2013-11-28 10:47:00,
2013-11-28 02:52:00,33.8,28.0,25.67,SE,135,2.1,3.0,77,0.00,,,0.00,Rainwise IP-100,2013-11-28 10:52:00,
2013-11-28 02:57:00,33.7,28.0,25.67,SE,135,2.1,2.1,76,0.00,,,0.00,Rainwise IP-100,2013-11-28 10:57:00,
2013-11-28 03:02:00,33.7,28.0,25.67,SE,135,2.3,2.3,76,0.00,,,0.00,Rainwise IP-100,2013-11-28 11:02:00,
2013-11-28 03:07:00,33.6,28.0,25.67,SE,135,1.4,2.0,77,0.00,,,0.00,Rainwise IP-100,2013-11-28 11:07:00,
2013-11-28 03:12:00,33.5,29.0,25.67,SE,135,1.2,2.0,78,0.00,,,0.00,Rainwise IP-100,2013-11-28 11:12:00,
2013-11-28 03:17:00,33.6,29.0,25.67,SE,135,0.0,2.0,78,0.00,,,0.00,Rainwise IP-100,2013-11-28 11:17:00,
2013-11-28 03:22:00,33.7,29.0,25.67,SE,135,2.3,2.3,78,0.00,,,0.00,Rainwise IP-100,2013-11-28 11:22:00,
2013-11-28 03:27:00,33.8,28.0,25.67,SE,135,1.9,2.0,77,0.00,,,0.00,Rainwise IP-100,2013-11-28 11:27:00,
2013-11-28 03:32:00,33.8,28.0,25.67,SE,135,2.1,2.1,77,0.00,,,0.00,Rainwise IP-100,2013-11-28 11:32:00,
2013-11-28 03:37:00,33.7,28.0,25.67,SE,135,1.9,2.0,77,0.00,,,0.00,Rainwise IP-100,2013-11-28 11:37:00,
2013-11-28 03:42:00,33.5,29.0,25.67,SE,135,2.1,2.1,78,0.00,,,0.00,Rainwise IP-100,2013-11-28 11:42:00,
2013-11-28 03:47:00,33.6,29.0,25.66,SE,135,0.0,2.0,78,0.00,,,0.00,Rainwise IP-100,2013-11-28 11:47:00,
2013-11-28 03:52:00,33.7,29.0,25.66,SE,135,1.4,2.0,78,0.00,,,0.00,Rainwise IP-100,2013-11-28 11:52:00,
2013-11-28 03:57:00,33.7,29.0,25.66,SE,135,0.0,3.0,78,0.00,,,0.00,Rainwise IP-100,2013-11-28 11:57:00,
2013-11-28 04:02:00,33.7,28.0,25.67,SE,135,2.1,2.1,77,0.00,,,0.00,Rainwise IP-100,2013-11-28 12:02:00,
2013-11-28 04:07:00,33.6,28.0,25.67,SE,135,0.0,3.0,77,0.00,,,0.00,Rainwise IP-100,2013-11-28 12:07:00,
2013-11-28 04:12:00,33.7,28.0,25.67,SE,135,2.1,3.0,76,0.00,,,0.00,Rainwise IP-100,2013-11-28 12:12:00,
2013-11-28 04:17:00,33.8,28.0,25.67,SE,135,1.2,3.0,77,0.00,,,0.00,Rainwise IP-100,2013-11-28 12:17:00,
2013-11-28 04:22:00,33.8,29.0,25.67,SE,135,0.0,2.0,78,0.00,,,0.00,Rainwise IP-100,2013-11-28 12:22:00,
2013-11-28 04:27:00,33.7,29.0,25.67,SE,135,1.6,2.0,79,0.00,,,0.00,Rainwise IP-100,2013-11-28 12:27:00,
2013-11-28 04:32:00,33.6,29.0,25.67,SE,135,0.0,2.0,80,0.00,,,0.00,Rainwise IP-100,2013-11-28 12:32:00,
2013-11-28 04:37:00,33.5,29.0,25.67,SE,135,0.0,2.0,81,0.00,,,0.00,Rainwise IP-100,2013-11-28 12:37:00,
2013-11-28 04:42:00,33.5,29.0,25.67,SE,135,0.0,3.0,81,0.00,,,0.00,Rainwise IP-100,2013-11-28 12:42:00,
2013-11-28 04:47:00,33.7,29.0,25.67,SE,135,2.6,3.0,80,0.00,,,0.00,Rainwise IP-100,2013-11-28 12:47:00,
2013-11-28 04:52:00,33.9,29.0,25.67,SE,135,1.6,3.0,79,0.00,,,0.00,Rainwise IP-100,2013-11-28 12:52:00,
2013-11-28 04:57:00,34.1,29.0,25.67,SE,135,2.1,3.0,78,0.00,,,0.00,Rainwise IP-100,2013-11-28 12:57:00,
2013-11-28 05:02:00,34.2,29.0,25.68,SE,135,0.0,2.0,78,0.00,,,0.00,Rainwise IP-100,2013-11-28 13:02:00,
2013-11-28 05:07:00,34.1,29.0,25.68,SE,135,1.2,2.0,78,0.00,,,0.00,Rainwise IP-100,2013-11-28 13:07:00,
2013-11-28 05:12:00,34.0,29.0,25.68,SE,135,0.0,2.0,78,0.00,,,0.00,Rainwise IP-100,2013-11-28 13:12:00,
2013-11-28 05:17:00,34.1,28.0,25.68,SE,135,0.0,2.0,77,0.00,,,0.00,Rainwise IP-100,2013-11-28 13:17:00,
2013-11-28 05:22:00,34.0,29.0,25.68,SE,135,1.9,2.0,78,0.00,,,0.00,Rainwise IP-100,2013-11-28 13:22:00,
2013-11-28 05:27:00,33.8,29.0,25.68,South,180,0.0,4.0,79,0.00,,,0.00,Rainwise IP-100,2013-11-28 13:27:00,
2013-11-28 05:32:00,33.7,29.0,25.68,SE,135,2.3,3.0,80,0.00,,,0.00,Rainwise IP-100,2013-11-28 13:32:00,
2013-11-28 05:37:00,34.0,29.0,25.68,ESE,112,2.1,3.0,79,0.00,,,0.00,Rainwise IP-100,2013-11-28 13:37:00,
2013-11-28 05:42:00,34.4,28.0,25.67,SE,135,1.9,3.0,77,0.00,,,0.00,Rainwise IP-100,2013-11-28 13:42:00,
2013-11-28 05:47:00,34.3,28.0,25.68,SE,135,0.0,3.0,77,0.00,,,0.00,Rainwise IP-100,2013-11-28 13:47:00,
2013-11-28 05:52:00,34.0,29.0,25.67,SSW,202,0.0,3.0,78,0.00,,,0.00,Rainwise IP-100,2013-11-28 13:52:00,
2013-11-28 05:57:00,33.8,29.0,25.67,SSE,157,0.0,4.0,79,0.00,,,0.00,Rainwise IP-100,2013-11-28 13:57:00,
2013-11-28 06:02:00,33.8,29.0,25.68,SE,135,2.8,3.0,78,0.00,,,0.00,Rainwise IP-100,2013-11-28 14:02:00,
2013-11-28 06:07:00,33.8,29.0,25.68,SE,135,1.9,3.0,78,0.00,,,0.00,Rainwise IP-100,2013-11-28 14:07:00,
2013-11-28 06:12:00,33.9,29.0,25.68,ESE,112,0.0,2.0,78,0.00,,,0.00,Rainwise IP-100,2013-11-28 14:12:00,
2013-11-28 06:17:00,33.9,28.0,25.68,ESE,112,1.2,2.0,77,0.00,,,0.00,Rainwise IP-100,2013-11-28 14:17:00,
2013-11-28 06:22:00,33.8,28.0,25.68,SE,135,0.0,2.0,76,0.00,,,0.00,Rainwise IP-100,2013-11-28 14:22:00,
2013-11-28 06:27:00,33.8,28.0,25.68,ESE,112,1.2,1.2,76,0.00,,,0.00,Rainwise IP-100,2013-11-28 14:27:00,
2013-11-28 06:32:00,33.6,28.0,25.68,SE,135,1.6,2.0,77,0.00,,,0.00,Rainwise IP-100,2013-11-28 14:32:00,
2013-11-28 06:37:00,33.4,28.0,25.68,SE,135,1.2,3.0,77,0.00,,,0.00,Rainwise IP-100,2013-11-28 14:37:00,
2013-11-28 06:42:00,33.3,28.0,25.68,SE,135,2.1,2.1,78,0.00,,,0.00,Rainwise IP-100,2013-11-28 14:42:00,
2013-11-28 06:47:00,33.2,28.0,25.68,SE,135,0.0,2.0,79,0.00,,,0.00,Rainwise IP-100,2013-11-28 14:47:00,
2013-11-28 06:52:00,33.0,28.0,25.68,SE,135,1.9,3.0,80,0.00,,,0.00,Rainwise IP-100,2013-11-28 14:52:00,
2013-11-28 06:57:00,33.0,28.0,25.68,SE,135,1.4,2.0,81,0.00,,,0.00,Rainwise IP-100,2013-11-28 14:57:00,
2013-11-28 07:02:00,33.1,28.0,25.68,SE,135,1.6,3.0,80,0.00,,,0.00,Rainwise IP-100,2013-11-28 15:02:00,
2013-11-28 07:07:00,33.2,28.0,25.68,SE,135,0.0,2.0,80,0.00,,,0.00,Rainwise IP-100,2013-11-28 15:07:00,
2013-11-28 07:12:00,33.1,28.0,25.68,SE,135,1.4,3.0,80,0.00,,,0.00,Rainwise IP-100,2013-11-28 15:12:00,
2013-11-28 07:17:00,33.3,28.0,25.68,SE,135,2.1,2.1,79,0.00,,,0.00,Rainwise IP-100,2013-11-28 15:17:00,
2013-11-28 07:22:00,33.4,28.0,25.69,SE,135,0.0,2.0,79,0.00,,,0.00,Rainwise IP-100,2013-11-28 15:22:00,
2013-11-28 07:27:00,33.3,28.0,25.69,SE,135,1.4,3.0,80,0.00,,,0.00,Rainwise IP-100,2013-11-28 15:27:00,
2013-11-28 07:32:00,33.2,28.0,25.69,SE,135,0.0,3.0,80,0.00,,,0.00,Rainwise IP-100,2013-11-28 15:32:00,
2013-11-28 07:37:00,33.4,28.0,25.69,SE,135,0.0,2.0,80,0.00,,,0.00,Rainwise IP-100,2013-11-28 15:37:00,
2013-11-28 07:42:00,33.4,28.0,25.69,SE,135,1.4,2.0,80,0.00,,,0.00,Rainwise IP-100,2013-11-28 15:42:00,
2013-11-28 07:47:00,33.2,28.0,25.69,SE,135,2.6,2.6,81,0.00,,,0.00,Rainwise IP-100,2013-11-28 15:47:00,
2013-11-28 07:52:00,33.3,28.0,25.69,SE,135,1.9,3.0,81,0.00,,,0.00,Rainwise IP-100,2013-11-28 15:52:00,
2013-11-28 07:57:00,33.4,28.0,25.69,SE,135,2.3,3.0,80,0.00,,,0.00,Rainwise IP-100,2013-11-28 15:57:00,
2013-11-28 08:02:00,33.5,29.0,25.70,SE,135,1.4,3.0,80,0.00,,,0.00,Rainwise IP-100,2013-11-28 16:02:00,
2013-11-28 08:07:00,33.4,28.0,25.70,SE,135,1.4,2.0,81,0.00,,,0.00,Rainwise IP-100,2013-11-28 16:07:00,
2013-11-28 08:12:00,33.5,29.0,25.69,SE,135,1.2,3.0,81,0.00,,,0.00,Rainwise IP-100,2013-11-28 16:12:00,
2013-11-28 08:17:00,33.6,29.0,25.70,SSE,157,0.0,3.0,81,0.00,,,0.00,Rainwise IP-100,2013-11-28 16:17:00,
2013-11-28 08:22:00,33.6,29.0,25.70,SE,135,2.3,3.0,81,0.00,,,0.00,Rainwise IP-100,2013-11-28 16:22:00,
2013-11-28 08:27:00,33.6,29.0,25.70,SE,135,2.1,3.0,80,0.00,,,0.00,Rainwise IP-100,2013-11-28 16:27:00,
2013-11-28 08:32:00,33.7,29.0,25.70,SE,135,1.4,2.0,80,0.00,,,0.00,Rainwise IP-100,2013-11-28 16:32:00,
2013-11-28 08:37:00,33.8,29.0,25.70,SE,135,1.2,2.0,80,0.00,,,0.00,Rainwise IP-100,2013-11-28 16:37:00,
2013-11-28 08:42:00,33.8,29.0,25.70,ESE,112,0.0,2.0,79,0.00,,,0.00,Rainwise IP-100,2013-11-28 16:42:00,
2013-11-28 08:47:00,33.8,29.0,25.70,SE,135,2.1,3.0,79,0.00,,,0.00,Rainwise IP-100,2013-11-28 16:47:00,
2013-11-28 08:52:00,33.7,29.0,25.70,SE,135,0.0,2.0,80,0.00,,,0.00,Rainwise IP-100,2013-11-28 16:52:00,
2013-11-28 08:57:00,33.6,29.0,25.70,SE,135,0.0,2.0,81,0.00,,,0.00,Rainwise IP-100,2013-11-28 16:57:00,
2013-11-28 09:02:00,33.7,29.0,25.71,SE,135,0.0,2.0,81,0.00,,,0.00,Rainwise IP-100,2013-11-28 17:02:00,
2013-11-28 09:07:00,33.7,29.0,25.71,SE,135,1.4,3.0,81,0.00,,,0.00,Rainwise IP-100,2013-11-28 17:07:00,
2013-11-28 09:12:00,33.6,29.0,25.70,SE,135,2.3,3.0,82,0.00,,,0.00,Rainwise IP-100,2013-11-28 17:12:00,
2013-11-28 09:17:00,33.6,29.0,25.70,SE,135,1.4,2.0,82,0.00,,,0.00,Rainwise IP-100,2013-11-28 17:17:00,
2013-11-28 09:22:00,33.9,29.0,25.71,SE,135,2.1,3.0,81,0.00,,,0.00,Rainwise IP-100,2013-11-28 17:22:00,
2013-11-28 09:27:00,33.9,29.0,25.71,SE,135,0.0,2.0,81,0.00,,,0.00,Rainwise IP-100,2013-11-28 17:27:00,
2013-11-28 09:32:00,33.8,31.0,25.71,SE,135,2.1,2.1,83,0.00,,,0.00,Rainwise IP-100,2013-11-28 17:32:00,
2013-11-28 09:37:00,33.8,29.0,25.71,SE,135,1.6,3.0,82,0.00,,,0.00,Rainwise IP-100,2013-11-28 17:37:00,
2013-11-28 09:42:00,33.9,29.0,25.71,SE,135,0.0,3.0,82,0.00,,,0.00,Rainwise IP-100,2013-11-28 17:42:00,
2013-11-28 09:47:00,34.0,29.0,25.71,SE,135,2.8,3.0,82,0.00,,,0.00,Rainwise IP-100,2013-11-28 17:47:00,
2013-11-28 09:52:00,34.3,29.0,25.71,SE,135,3.0,3.0,82,0.00,,,0.00,Rainwise IP-100,2013-11-28 17:52:00,
2013-11-28 09:57:00,34.8,29.0,25.70,SE,135,3.3,3.3,79,0.00,,,0.00,Rainwise IP-100,2013-11-28 17:57:00,
2013-11-28 10:02:00,35.0,29.0,25.72,SE,135,2.8,3.0,78,0.00,,,0.00,Rainwise IP-100,2013-11-28 18:02:00,
2013-11-28 10:07:00,34.9,29.0,25.71,SE,135,1.9,2.0,79,0.00,,,0.00,Rainwise IP-100,2013-11-28 18:07:00,
2013-11-28 10:12:00,34.8,29.0,25.71,SE,135,1.6,2.0,79,0.00,,,0.00,Rainwise IP-100,2013-11-28 18:12:00,
2013-11-28 10:17:00,34.7,29.0,25.72,SE,135,2.6,2.6,80,0.00,,,0.00,Rainwise IP-100,2013-11-28 18:17:00,
2013-11-28 10:22:00,34.6,29.0,25.72,SE,135,2.8,2.8,81,0.00,,,0.00,Rainwise IP-100,2013-11-28 18:22:00,
2013-11-28 10:27:00,34.7,29.0,25.71,SE,135,0.0,2.0,82,0.00,,,0.00,Rainwise IP-100,2013-11-28 18:27:00,
2013-11-28 10:32:00,34.9,29.0,25.71,SE,135,2.1,3.0,81,0.00,,,0.00,Rainwise IP-100,2013-11-28 18:32:00,
2013-11-28 10:37:00,35.2,29.0,25.71,SE,135,3.0,3.0,80,0.00,,,0.00,Rainwise IP-100,2013-11-28 18:37:00,
2013-11-28 10:42:00,35.8,29.0,25.71,SE,135,0.0,3.0,78,0.00,,,0.00,Rainwise IP-100,2013-11-28 18:42:00,
2013-11-28 10:47:00,36.2,29.0,25.72,ESE,112,2.6,3.0,77,0.00,,,0.00,Rainwise IP-100,2013-11-28 18:47:00,
2013-11-28 10:52:00,36.5,31.0,25.72,SE,135,2.8,3.0,76,0.00,,,0.00,Rainwise IP-100,2013-11-28 18:52:00,
2013-11-28 10:57:00,36.8,31.0,25.72,SE,135,2.3,3.0,75,0.00,,,0.00,Rainwise IP-100,2013-11-28 18:57:00,
2013-11-28 11:02:00,36.7,31.0,25.72,SE,135,1.2,3.0,76,0.00,,,0.00,Rainwise IP-100,2013-11-28 19:02:00,
2013-11-28 11:07:00,36.7,31.0,25.72,SE,135,2.6,3.0,76,0.00,,,0.00,Rainwise IP-100,2013-11-28 19:07:00,
2013-11-28 11:12:00,37.0,31.0,25.71,SE,135,2.8,3.0,76,0.00,,,0.00,Rainwise IP-100,2013-11-28 19:12:00,
2013-11-28 11:17:00,37.4,31.0,25.72,ESE,112,2.8,3.0,75,0.00,,,0.00,Rainwise IP-100,2013-11-28 19:17:00,
2013-11-28 11:22:00,38.0,31.0,25.71,SE,135,2.6,3.0,74,0.00,,,0.00,Rainwise IP-100,2013-11-28 19:22:00,
2013-11-28 11:27:00,37.9,31.0,25.71,SE,135,2.3,2.3,75,0.00,,,0.00,Rainwise IP-100,2013-11-28 19:27:00,
2013-11-28 11:32:00,37.5,31.0,25.72,SE,135,2.3,3.0,76,0.00,,,0.00,Rainwise IP-100,2013-11-28 19:32:00,
2013-11-28 11:37:00,37.9,31.0,25.71,ESE,112,2.1,3.0,76,0.00,,,0.00,Rainwise IP-100,2013-11-28 19:37:00,
2013-11-28 11:42:00,38.8,32.0,25.71,ESE,112,2.3,3.0,74,0.00,,,0.00,Rainwise IP-100,2013-11-28 19:42:00,
2013-11-28 11:47:00,38.9,32.0,25.72,ESE,112,1.4,2.0,73,0.00,,,0.00,Rainwise IP-100,2013-11-28 19:47:00,
2013-11-28 11:52:00,38.5,32.0,25.71,ESE,112,1.2,3.0,75,0.00,,,0.00,Rainwise IP-100,2013-11-28 19:52:00,
2013-11-28 11:57:00,38.3,31.0,25.71,SE,135,2.6,3.0,76,0.00,,,0.00,Rainwise IP-100,2013-11-28 19:57:00,
2013-11-28 12:02:00,38.7,32.0,25.71,ESE,112,2.3,3.0,76,0.00,,,0.00,Rainwise IP-100,2013-11-28 20:02:00,
2013-11-28 12:07:00,39.3,32.0,25.71,ESE,112,2.6,3.0,74,0.00,,,0.00,Rainwise IP-100,2013-11-28 20:07:00,
2013-11-28 12:12:00,39.0,32.0,25.71,ESE,112,2.6,3.0,74,0.00,,,0.00,Rainwise IP-100,2013-11-28 20:12:00,
2013-11-28 12:17:00,38.9,32.0,25.70,ESE,112,2.6,3.0,75,0.00,,,0.00,Rainwise IP-100,2013-11-28 20:17:00,
2013-11-28 12:22:00,39.1,32.0,25.70,ESE,112,1.6,3.0,75,0.00,,,0.00,Rainwise IP-100,2013-11-28 20:22:00,
2013-11-28 12:27:00,39.2,32.0,25.71,SE,135,1.6,3.0,75,0.00,,,0.00,Rainwise IP-100,2013-11-28 20:27:00,
2013-11-28 12:32:00,39.6,33.0,25.70,SE,135,1.4,3.0,74,0.00,,,0.00,Rainwise IP-100,2013-11-28 20:32:00,
2013-11-28 12:37:00,40.3,32.0,25.71,SE,135,1.6,2.0,72,0.00,,,0.00,Rainwise IP-100,2013-11-28 20:37:00,
2013-11-28 12:42:00,40.7,33.0,25.71,SSE,157,1.2,3.0,72,0.00,,,0.00,Rainwise IP-100,2013-11-28 20:42:00,
2013-11-28 12:47:00,41.5,33.0,25.72,WNW,292,0.0,2.0,69,0.00,,,0.00,Rainwise IP-100,2013-11-28 20:47:00,
2013-11-28 12:52:00,42.6,32.0,25.71,ESE,112,1.6,3.0,65,0.00,,,0.00,Rainwise IP-100,2013-11-28 20:52:00,
2013-11-28 12:57:00,43.0,32.0,25.71,SE,135,2.3,4.0,63,0.00,,,0.00,Rainwise IP-100,2013-11-28 20:57:00,
2013-11-28 13:02:00,42.8,32.0,25.71,SSE,157,1.4,3.0,64,0.00,,,0.00,Rainwise IP-100,2013-11-28 21:02:00,
2013-11-28 13:07:00,42.9,32.0,25.71,SE,135,1.4,3.0,64,0.00,,,0.00,Rainwise IP-100,2013-11-28 21:07:00,
2013-11-28 13:12:00,43.1,32.0,25.71,SSW,202,4.7,4.7,64,0.00,,,0.00,Rainwise IP-100,2013-11-28 21:12:00,
2013-11-28 13:17:00,43.0,32.0,25.71,SE,135,1.9,5.0,65,0.00,,,0.00,Rainwise IP-100,2013-11-28 21:17:00,
2013-11-28 13:22:00,42.5,32.0,25.72,SE,135,1.2,2.0,66,0.00,,,0.00,Rainwise IP-100,2013-11-28 21:22:00,
2013-11-28 13:27:00,42.7,32.0,25.72,SSW,202,3.5,4.0,66,0.00,,,0.00,Rainwise IP-100,2013-11-28 21:27:00,
2013-11-28 13:32:00,43.1,32.0,25.72,South,180,0.0,4.0,65,0.00,,,0.00,Rainwise IP-100,2013-11-28 21:32:00,
2013-11-28 13:37:00,43.2,32.0,25.72,SSW,202,5.4,5.4,65,0.00,,,0.00,Rainwise IP-100,2013-11-28 21:37:00,
2013-11-28 13:42:00,43.4,32.0,25.73,SE,135,1.4,5.0,64,0.00,,,0.00,Rainwise IP-100,2013-11-28 21:42:00,
2013-11-28 13:47:00,43.4,32.0,25.73,SE,135,1.4,2.0,64,0.00,,,0.00,Rainwise IP-100,2013-11-28 21:47:00,
2013-11-28 13:52:00,43.7,33.0,25.73,South,180,1.2,3.0,64,0.00,,,0.00,Rainwise IP-100,2013-11-28 21:52:00,
2013-11-28 13:57:00,44.4,32.0,25.73,South,180,2.1,2.1,62,0.00,,,0.00,Rainwise IP-100,2013-11-28 21:57:00,
2013-11-28 14:02:00,45.4,31.0,25.73,SW,225,1.9,2.0,58,0.00,,,0.00,Rainwise IP-100,2013-11-28 22:02:00,
2013-11-28 14:07:00,46.2,31.0,25.73,WSW,247,1.2,2.0,54,0.00,,,0.00,Rainwise IP-100,2013-11-28 22:07:00,
2013-11-28 14:12:00,45.9,31.0,25.74,SSW,202,0.0,2.0,54,0.00,,,0.00,Rainwise IP-100,2013-11-28 22:12:00,
2013-11-28 14:17:00,44.9,31.0,25.73,NNE,22,0.0,3.0,56,0.00,,,0.00,Rainwise IP-100,2013-11-28 22:17:00,
2013-11-28 14:22:00,44.3,31.0,25.73,SSW,202,2.6,5.0,58,0.00,,,0.00,Rainwise IP-100,2013-11-28 22:22:00,
2013-11-28 14:27:00,44.0,31.0,25.73,SSE,157,0.0,3.0,60,0.00,,,0.00,Rainwise IP-100,2013-11-28 22:27:00,
2013-11-28 14:32:00,43.7,32.0,25.74,SSW,202,2.1,3.0,62,0.00,,,0.00,Rainwise IP-100,2013-11-28 22:32:00,
2013-11-28 14:37:00,43.7,32.0,25.73,SSE,157,1.4,2.0,63,0.00,,,0.00,Rainwise IP-100,2013-11-28 22:37:00,
2013-11-28 14:42:00,43.6,32.0,25.74,SSW,202,1.4,1.4,63,0.00,,,0.00,Rainwise IP-100,2013-11-28 22:42:00,
2013-11-28 14:47:00,43.1,32.0,25.74,SSW,202,0.0,3.0,64,0.00,,,0.00,Rainwise IP-100,2013-11-28 22:47:00,
2013-11-28 14:52:00,42.3,31.0,25.74,South,180,0.0,3.0,64,0.00,,,0.00,Rainwise IP-100,2013-11-28 22:52:00,
2013-11-28 14:57:00,41.3,31.0,25.74,SE,135,0.0,2.0,65,0.00,,,0.00,Rainwise IP-100,2013-11-28 22:57:00,
2013-11-28 15:02:00,40.4,31.0,25.74,South,180,1.4,2.0,68,0.00,,,0.00,Rainwise IP-100,2013-11-28 23:02:00,
2013-11-28 15:07:00,39.8,32.0,25.74,SSW,202,0.0,4.0,70,0.00,,,0.00,Rainwise IP-100,2013-11-28 23:07:00,
2013-11-28 15:12:00,38.8,31.0,25.74,SSW,202,0.0,1.0,71,0.00,,,0.00,Rainwise IP-100,2013-11-28 23:12:00,
2013-11-28 15:17:00,38.0,31.0,25.74,SSE,157,1.4,1.4,73,0.00,,,0.00,Rainwise IP-100,2013-11-28 23:17:00,
2013-11-28 15:22:00,37.7,31.0,25.74,SSW,202,1.6,5.0,75,0.00,,,0.00,Rainwise IP-100,2013-11-28 23:22:00,
2013-11-28 15:27:00,37.6,31.0,25.73,SSW,202,3.5,4.0,75,0.00,,,0.00,Rainwise IP-100,2013-11-28 23:27:00,
2013-11-28 15:32:00,37.4,29.0,25.74,SSW,202,0.0,3.0,74,0.00,,,0.00,Rainwise IP-100,2013-11-28 23:32:00,
2013-11-28 15:37:00,37.3,31.0,25.74,SSW,202,1.6,5.0,75,0.00,,,0.00,Rainwise IP-100,2013-11-28 23:37:00,
2013-11-28 15:42:00,36.9,31.0,25.73,South,180,3.3,4.0,76,0.00,,,0.00,Rainwise IP-100,2013-11-28 23:42:00,
2013-11-28 15:47:00,36.6,31.0,25.74,SSW,202,0.0,4.0,75,0.00,,,0.00,Rainwise IP-100,2013-11-28 23:47:00,
2013-11-28 15:52:00,36.3,29.0,25.73,South,180,0.0,4.0,76,0.00,,,0.00,Rainwise IP-100,2013-11-28 23:52:00,
2013-11-28 15:57:00,35.9,29.0,25.74,SSW,202,3.5,4.0,77,0.00,,,0.00,Rainwise IP-100,2013-11-28 23:57:00,
2013-11-28 16:02:00,35.7,29.0,25.74,SSE,157,2.1,4.0,78,0.00,,,0.00,Rainwise IP-100,2013-11-29 00:02:00,
2013-11-28 16:07:00,35.7,31.0,25.74,SE,135,0.0,2.0,79,0.00,,,0.00,Rainwise IP-100,2013-11-29 00:07:00,
2013-11-28 16:12:00,35.8,31.0,25.74,South,180,1.2,3.0,79,0.00,,,0.00,Rainwise IP-100,2013-11-29 00:12:00,
2013-11-28 16:17:00,35.6,29.0,25.74,South,180,1.2,5.0,78,0.00,,,0.00,Rainwise IP-100,2013-11-29 00:17:00,
2013-11-28 16:22:00,35.2,29.0,25.74,SE,135,0.0,2.0,78,0.00,,,0.00,Rainwise IP-100,2013-11-29 00:22:00,
2013-11-28 16:27:00,34.9,29.0,25.74,SSE,157,0.0,2.0,79,0.00,,,0.00,Rainwise IP-100,2013-11-29 00:27:00,
2013-11-28 16:32:00,34.6,29.0,25.74,SSE,157,0.0,1.0,80,0.00,,,0.00,Rainwise IP-100,2013-11-29 00:32:00,
2013-11-28 16:37:00,34.4,29.0,25.74,SSW,202,1.6,2.0,81,0.00,,,0.00,Rainwise IP-100,2013-11-29 00:37:00,
2013-11-28 16:42:00,34.2,29.0,25.74,SE,135,0.0,2.0,81,0.00,,,0.00,Rainwise IP-100,2013-11-29 00:42:00,
2013-11-28 16:47:00,34.1,29.0,25.74,SE,135,0.0,2.0,81,0.00,,,0.00,Rainwise IP-100,2013-11-29 00:47:00,
2013-11-28 16:52:00,34.3,29.0,25.74,SSW,202,0.0,5.0,81,0.00,,,0.00,Rainwise IP-100,2013-11-29 00:52:00,
2013-11-28 16:57:00,34.3,29.0,25.74,SSW,202,0.0,2.0,81,0.00,,,0.00,Rainwise IP-100,2013-11-29 00:57:00,
2013-11-28 17:02:00,34.0,29.0,25.74,SSW,202,0.0,4.0,81,0.00,,,0.00,Rainwise IP-100,2013-11-29 01:02:00,
2013-11-28 17:07:00,33.8,29.0,25.74,SSW,202,1.6,1.6,82,0.00,,,0.00,Rainwise IP-100,2013-11-29 01:07:00,
2013-11-28 17:12:00,33.8,29.0,25.74,SSW,202,0.0,4.0,81,0.00,,,0.00,Rainwise IP-100,2013-11-29 01:12:00,
2013-11-28 17:17:00,33.8,29.0,25.74,SSW,202,0.0,2.0,81,0.00,,,0.00,Rainwise IP-100,2013-11-29 01:17:00,
2013-11-28 17:22:00,33.6,29.0,25.74,SSE,157,0.0,1.0,81,0.00,,,0.00,Rainwise IP-100,2013-11-29 01:22:00,
2013-11-28 17:27:00,33.5,29.0,25.74,SE,135,0.0,2.0,81,0.00,,,0.00,Rainwise IP-100,2013-11-29 01:27:00,
2013-11-28 17:32:00,33.4,29.0,25.74,SSW,202,0.0,3.0,82,0.00,,,0.00,Rainwise IP-100,2013-11-29 01:32:00,
2013-11-28 17:37:00,33.1,29.0,25.74,SSW,202,1.9,2.0,84,0.00,,,0.00,Rainwise IP-100,2013-11-29 01:37:00,
2013-11-28 17:42:00,32.9,29.0,25.74,SSW,202,0.0,2.0,84,0.00,,,0.00,Rainwise IP-100,2013-11-29 01:42:00,
2013-11-28 17:47:00,32.9,29.0,25.74,SSW,202,0.0,0.0,83,0.00,,,0.00,Rainwise IP-100,2013-11-29 01:47:00,
2013-11-28 17:52:00,32.8,29.0,25.74,SSE,157,0.0,4.0,84,0.00,,,0.00,Rainwise IP-100,2013-11-29 01:52:00,
2013-11-28 17:57:00,32.9,29.0,25.74,South,180,0.0,2.0,84,0.00,,,0.00,Rainwise IP-100,2013-11-29 01:57:00,
2013-11-28 18:02:00,33.0,29.0,25.74,South,180,0.0,1.0,84,0.00,,,0.00,Rainwise IP-100,2013-11-29 02:02:00,
2013-11-28 18:07:00,33.1,29.0,25.74,SSW,202,1.6,2.0,83,0.00,,,0.00,Rainwise IP-100,2013-11-29 02:07:00,
2013-11-28 18:12:00,33.1,29.0,25.74,SSE,157,1.2,4.0,83,0.00,,,0.00,Rainwise IP-100,2013-11-29 02:12:00,
2013-11-28 18:17:00,33.1,29.0,25.74,South,180,0.0,2.0,83,0.00,,,0.00,Rainwise IP-100,2013-11-29 02:17:00,
2013-11-28 18:22:00,33.0,29.0,25.74,SSW,202,1.2,4.0,83,0.00,,,0.00,Rainwise IP-100,2013-11-29 02:22:00,
2013-11-28 18:27:00,33.0,29.0,25.74,SSW,202,0.0,4.0,83,0.00,,,0.00,Rainwise IP-100,2013-11-29 02:27:00,
2013-11-28 18:32:00,33.0,29.0,25.75,SSE,157,1.4,2.0,82,0.00,,,0.00,Rainwise IP-100,2013-11-29 02:32:00,
2013-11-28 18:37:00,32.9,29.0,25.75,SE,135,2.1,2.1,83,0.00,,,0.00,Rainwise IP-100,2013-11-29 02:37:00,
2013-11-28 18:42:00,32.8,29.0,25.75,SSE,157,0.0,2.0,83,0.00,,,0.00,Rainwise IP-100,2013-11-29 02:42:00,
2013-11-28 18:47:00,32.6,29.0,25.75,SSW,202,0.0,4.0,84,0.00,,,0.00,Rainwise IP-100,2013-11-29 02:47:00,
2013-11-28 18:52:00,32.4,28.0,25.75,ESE,112,0.0,2.0,85,0.00,,,0.00,Rainwise IP-100,2013-11-29 02:52:00,
2013-11-28 18:57:00,32.3,28.0,25.74,SSE,157,0.0,1.0,86,0.00,,,0.00,Rainwise IP-100,2013-11-29 02:57:00,
2013-11-28 19:02:00,32.3,28.0,25.74,SSE,157,0.0,2.0,86,0.00,,,0.00,Rainwise IP-100,2013-11-29 03:02:00,
2013-11-28 19:07:00,32.3,28.0,25.75,SSE,157,0.0,2.0,86,0.00,,,0.00,Rainwise IP-100,2013-11-29 03:07:00,
2013-11-28 19:12:00,32.3,29.0,25.74,South,180,1.6,2.0,87,0.00,,,0.00,Rainwise IP-100,2013-11-29 03:12:00,
2013-11-28 19:17:00,32.3,29.0,25.75,SSE,157,0.0,4.0,87,0.00,,,0.00,Rainwise IP-100,2013-11-29 03:17:00,
2013-11-28 19:22:00,32.3,29.0,25.74,SSE,157,1.2,1.2,87,0.00,,,0.00,Rainwise IP-100,2013-11-29 03:22:00,
2013-11-28 19:27:00,32.4,29.0,25.74,South,180,1.4,4.0,87,0.00,,,0.00,Rainwise IP-100,2013-11-29 03:27:00,
2013-11-28 19:32:00,32.5,29.0,25.74,South,180,0.0,4.0,85,0.00,,,0.00,Rainwise IP-100,2013-11-29 03:32:00,
2013-11-28 19:37:00,32.7,29.0,25.74,SSW,202,2.8,4.0,85,0.00,,,0.00,Rainwise IP-100,2013-11-29 03:37:00,
2013-11-28 19:42:00,32.9,29.0,25.74,SSW,202,0.0,4.0,84,0.00,,,0.00,Rainwise IP-100,2013-11-29 03:42:00,
2013-11-28 19:47:00,33.1,29.0,25.74,SSW,202,2.1,3.0,83,0.00,,,0.00,Rainwise IP-100,2013-11-29 03:47:00,
2013-11-28 19:52:00,33.1,29.0,25.74,SSE,157,1.4,3.0,84,0.00,,,0.00,Rainwise IP-100,2013-11-29 03:52:00,
2013-11-28 19:57:00,32.9,29.0,25.74,SSE,157,1.2,3.0,84,0.00,,,0.00,Rainwise IP-100,2013-11-29 03:57:00,
2013-11-28 20:02:00,32.8,29.0,25.74,SE,135,1.9,3.0,84,0.00,,,0.00,Rainwise IP-100,2013-11-29 04:02:00,
2013-11-28 20:07:00,32.6,29.0,25.74,SE,135,1.9,2.0,85,0.00,,,0.00,Rainwise IP-100,2013-11-29 04:07:00,
2013-11-28 20:12:00,32.6,29.0,25.74,ESE,112,0.0,2.0,85,0.00,,,0.00,Rainwise IP-100,2013-11-29 04:12:00,
2013-11-28 20:17:00,32.7,29.0,25.74,ESE,112,0.0,1.0,84,0.00,,,0.00,Rainwise IP-100,2013-11-29 04:17:00,
2013-11-28 20:22:00,32.8,29.0,25.75,ESE,112,0.0,1.0,84,0.00,,,0.00,Rainwise IP-100,2013-11-29 04:22:00,
2013-11-28 20:27:00,32.7,29.0,25.75,ESE,112,2.1,2.1,83,0.00,,,0.00,Rainwise IP-100,2013-11-29 04:27:00,
2013-11-28 20:32:00,32.7,29.0,25.75,SSE,157,1.4,2.0,83,0.00,,,0.00,Rainwise IP-100,2013-11-29 04:32:00,
2013-11-28 20:37:00,32.4,28.0,25.76,SSE,157,0.0,2.0,84,0.00,,,0.00,Rainwise IP-100,2013-11-29 04:37:00,
2013-11-28 20:42:00,32.1,28.0,25.76,SSE,157,0.0,2.0,85,0.00,,,0.00,Rainwise IP-100,2013-11-29 04:42:00,
2013-11-28 20:47:00,32.1,28.0,25.76,SE,135,2.1,2.1,85,0.00,,,0.00,Rainwise IP-100,2013-11-29 04:47:00,
2013-11-28 20:52:00,32.2,28.0,25.76,South,180,0.0,2.0,85,0.00,,,0.00,Rainwise IP-100,2013-11-29 04:52:00,
2013-11-28 20:57:00,32.1,28.0,25.76,SSE,157,0.0,2.0,85,0.00,,,0.00,Rainwise IP-100,2013-11-29 04:57:00,
2013-11-28 21:01:00,31.9,28.0,25.75,SSE,157,2.1,2.1,85,0.00,,,0.00,Rainwise IP-100,2013-11-29 05:01:00,
2013-11-28 21:02:00,31.9,28.0,25.76,SSE,157,0.0,2.0,85,0.00,,,0.00,Rainwise IP-100,2013-11-29 05:02:00,
2013-11-28 21:07:00,31.8,28.0,25.75,SSE,157,1.4,2.0,86,0.00,,,0.00,Rainwise IP-100,2013-11-29 05:07:00,
2013-11-28 21:12:00,31.8,29.0,25.75,SSE,157,0.0,2.0,87,0.00,,,0.00,Rainwise IP-100,2013-11-29 05:12:00,
2013-11-28 21:17:00,31.6,29.0,25.75,ESE,112,0.0,2.0,87,0.00,,,0.00,Rainwise IP-100,2013-11-29 05:17:00,
2013-11-28 21:22:00,31.5,28.0,25.75,SE,135,0.0,2.0,86,0.00,,,0.00,Rainwise IP-100,2013-11-29 05:22:00,
2013-11-28 21:27:00,31.6,28.0,25.75,SE,135,1.2,2.0,85,0.00,,,0.00,Rainwise IP-100,2013-11-29 05:27:00,
2013-11-28 21:32:00,31.8,28.0,25.75,SE,135,1.4,2.0,85,0.00,,,0.00,Rainwise IP-100,2013-11-29 05:32:00,
2013-11-28 21:37:00,32.1,28.0,25.76,SE,135,0.0,2.0,85,0.00,,,0.00,Rainwise IP-100,2013-11-29 05:37:00,
2013-11-28 21:42:00,32.2,28.0,25.75,South,180,0.0,2.0,85,0.00,,,0.00,Rainwise IP-100,2013-11-29 05:42:00,
2013-11-28 21:47:00,32.1,28.0,25.75,SE,135,1.6,3.0,85,0.00,,,0.00,Rainwise IP-100,2013-11-29 05:47:00,
2013-11-28 21:52:00,32.0,28.0,25.76,SE,135,1.6,2.0,85,0.00,,,0.00,Rainwise IP-100,2013-11-29 05:52:00,
2013-11-28 21:57:00,32.0,28.0,25.75,SSW,202,0.0,3.0,85,0.00,,,0.00,Rainwise IP-100,2013-11-29 05:57:00,
2013-11-28 22:02:00,32.0,28.0,25.75,SSE,157,0.0,2.0,85,0.00,,,0.00,Rainwise IP-100,2013-11-29 06:02:00,
2013-11-28 22:07:00,32.0,28.0,25.75,SSE,157,0.0,2.0,85,0.00,,,0.00,Rainwise IP-100,2013-11-29 06:07:00,
2013-11-28 22:12:00,32.0,28.0,25.75,SE,135,1.4,2.0,85,0.00,,,0.00,Rainwise IP-100,2013-11-29 06:12:00,
2013-11-28 22:17:00,32.1,28.0,25.74,SSW,202,0.0,1.0,85,0.00,,,0.00,Rainwise IP-100,2013-11-29 06:17:00,
2013-11-28 22:22:00,32.3,28.0,25.75,SSW,202,0.0,1.0,84,0.00,,,0.00,Rainwise IP-100,2013-11-29 06:22:00,
2013-11-28 22:27:00,32.5,29.0,25.75,South,180,0.0,1.0,83,0.00,,,0.00,Rainwise IP-100,2013-11-29 06:27:00,
2013-11-28 22:32:00,32.6,29.0,25.76,South,180,0.0,1.0,83,0.00,,,0.00,Rainwise IP-100,2013-11-29 06:32:00,
2013-11-28 22:37:00,32.6,29.0,25.76,SE,135,1.4,2.0,83,0.00,,,0.00,Rainwise IP-100,2013-11-29 06:37:00,
2013-11-28 22:42:00,32.6,29.0,25.75,South,180,1.4,2.0,83,0.00,,,0.00,Rainwise IP-100,2013-11-29 06:42:00,
2013-11-28 22:47:00,32.2,28.0,25.76,SSE,157,0.0,4.0,83,0.00,,,0.00,Rainwise IP-100,2013-11-29 06:47:00,
2013-11-28 22:52:00,31.9,28.0,25.75,SSE,157,1.6,2.0,83,0.00,,,0.00,Rainwise IP-100,2013-11-29 06:52:00,
2013-11-28 22:57:00,31.9,28.0,25.76,SE,135,0.0,4.0,85,0.00,,,0.00,Rainwise IP-100,2013-11-29 06:57:00,
2013-11-28 23:02:00,31.7,28.0,25.76,SSW,202,0.0,4.0,85,0.00,,,0.00,Rainwise IP-100,2013-11-29 07:02:00,
2013-11-28 23:07:00,31.5,28.0,25.76,SSE,157,1.4,2.0,86,0.00,,,0.00,Rainwise IP-100,2013-11-29 07:07:00,
2013-11-28 23:12:00,31.5,28.0,25.76,SE,135,2.8,3.0,86,0.00,,,0.00,Rainwise IP-100,2013-11-29 07:12:00,
2013-11-28 23:17:00,31.7,28.0,25.76,SSW,202,0.0,2.0,85,0.00,,,0.00,Rainwise IP-100,2013-11-29 07:17:00,
2013-11-28 23:22:00,31.8,28.0,25.77,SE,135,1.4,2.0,85,0.00,,,0.00,Rainwise IP-100,2013-11-29 07:22:00,
2013-11-28 23:27:00,31.9,28.0,25.77,SE,135,2.3,2.3,85,0.00,,,0.00,Rainwise IP-100,2013-11-29 07:27:00,
2013-11-28 23:32:00,31.9,28.0,25.77,SE,135,1.4,3.0,85,0.00,,,0.00,Rainwise IP-100,2013-11-29 07:32:00,
2013-11-28 23:37:00,31.9,28.0,25.77,SE,135,0.0,2.0,85,0.00,,,0.00,Rainwise IP-100,2013-11-29 07:37:00,
2013-11-28 23:42:00,31.8,28.0,25.77,SE,135,0.0,2.0,85,0.00,,,0.00,Rainwise IP-100,2013-11-29 07:42:00,
2013-11-28 23:47:00,31.6,28.0,25.77,SE,135,1.4,2.0,86,0.00,,,0.00,Rainwise IP-100,2013-11-29 07:47:00,
2013-11-28 23:52:00,31.5,28.0,25.77,SE,135,0.0,1.0,86,0.00,,,0.00,Rainwise IP-100,2013-11-29 07:52:00,
2013-11-28 23:57:00,31.6,28.0,25.77,SE,135,0.0,1.0,86,0.00,,,0.00,Rainwise IP-100,2013-11-29 07:57:00,